sensor_id;sensor_type;location;lat;lon;timestamp;pressure;altitude;pressure_sealevel;temperature;humidity
69909;BME280;57190;47.918;8.112;2023-04-19T00:00:13;91114.47;;;5.31;82.11
69909;BME280;57190;47.918;8.112;2023-04-19T00:02:39;91125.06;;;5.43;81.03
69909;BME280;57190;47.918;8.112;2023-04-19T00:05:06;91117.94;;;5.43;81.13
69909;BME280;57190;47.918;8.112;2023-04-19T00:07:32;91128.19;;;5.40;81.50
69909;BME280;57190;47.918;8.112;2023-04-19T00:09:58;91116.78;;;5.39;82.29
69909;BME280;57190;47.918;8.112;2023-04-19T00:12:23;91118.63;;;5.39;82.04
69909;BME280;57190;47.918;8.112;2023-04-19T00:14:49;91114.47;;;5.43;82.11
69909;BME280;57190;47.918;8.112;2023-04-19T00:17:15;91108.84;;;5.51;81.31
69909;BME280;57190;47.918;8.112;2023-04-19T00:19:41;91108.16;;;5.44;80.98
69909;BME280;57190;47.918;8.112;2023-04-19T00:22:07;91107.56;;;5.42;81.70
69909;BME280;57190;47.918;8.112;2023-04-19T00:24:32;91113.00;;;5.47;81.38
69909;BME280;57190;47.918;8.112;2023-04-19T00:26:58;91102.28;;;5.42;81.10
69909;BME280;57190;47.918;8.112;2023-04-19T00:29:24;91109.19;;;5.43;81.09
69909;BME280;57190;47.918;8.112;2023-04-19T00:31:49;91098.94;;;5.46;80.71
69909;BME280;57190;47.918;8.112;2023-04-19T00:34:15;91097.13;;;5.47;80.87
69909;BME280;57190;47.918;8.112;2023-04-19T00:36:40;91100.56;;;5.47;80.68
69909;BME280;57190;47.918;8.112;2023-04-19T00:39:06;91099.19;;;5.45;80.28
69909;BME280;57190;47.918;8.112;2023-04-19T00:41:32;91102.28;;;5.42;80.51
69909;BME280;57190;47.918;8.112;2023-04-19T00:43:57;91095.50;;;5.46;80.39
69909;BME280;57190;47.918;8.112;2023-04-19T00:46:23;91100.69;;;5.41;80.75
69909;BME280;57190;47.918;8.112;2023-04-19T00:48:49;91101.38;;;5.48;80.60
69909;BME280;57190;47.918;8.112;2023-04-19T00:51:15;91093.66;;;5.46;80.29
69909;BME280;57190;47.918;8.112;2023-04-19T00:53:42;91096.09;;;5.48;80.76
69909;BME280;57190;47.918;8.112;2023-04-19T00:56:08;91097.91;;;5.47;79.78
69909;BME280;57190;47.918;8.112;2023-04-19T00:58:37;91091.84;;;5.47;80.13
69909;BME280;57190;47.918;8.112;2023-04-19T01:01:03;91092.63;;;5.47;80.29
69909;BME280;57190;47.918;8.112;2023-04-19T01:03:29;91092.41;;;5.49;79.55
69909;BME280;57190;47.918;8.112;2023-04-19T01:05:55;91090.56;;;5.49;80.16
69909;BME280;57190;47.918;8.112;2023-04-19T01:08:21;91088.16;;;5.48;79.50
69909;BME280;57190;47.918;8.112;2023-04-19T01:10:47;91081.50;;;5.45;79.89
69909;BME280;57190;47.918;8.112;2023-04-19T01:13:12;91083.78;;;5.54;80.19
69909;BME280;57190;47.918;8.112;2023-04-19T01:15:38;91085.28;;;5.49;79.62
69909;BME280;57190;47.918;8.112;2023-04-19T01:18:03;91079.19;;;5.49;78.88
69909;BME280;57190;47.918;8.112;2023-04-19T01:20:29;91076.75;;;5.47;79.63
69909;BME280;57190;47.918;8.112;2023-04-19T01:22:55;91074.34;;;5.46;79.65
69909;BME280;57190;47.918;8.112;2023-04-19T01:25:20;91072.28;;;5.48;79.39
69909;BME280;57190;47.918;8.112;2023-04-19T01:27:46;91071.69;;;5.46;79.71
69909;BME280;57190;47.918;8.112;2023-04-19T01:30:12;91070.66;;;5.47;79.51
69909;BME280;57190;47.918;8.112;2023-04-19T01:32:37;91072.50;;;5.46;79.67
69909;BME280;57190;47.918;8.112;2023-04-19T01:35:03;91066.66;;;5.44;79.72
69909;BME280;57190;47.918;8.112;2023-04-19T01:37:29;91067.44;;;5.45;79.45
69909;BME280;57190;47.918;8.112;2023-04-19T01:39:55;91073.06;;;5.48;79.39
69909;BME280;57190;47.918;8.112;2023-04-19T01:42:20;91066.16;;;5.47;79.10
69909;BME280;57190;47.918;8.112;2023-04-19T01:44:46;91060.09;;;5.47;79.95
69909;BME280;57190;47.918;8.112;2023-04-19T01:47:11;91056.06;;;5.44;79.74
69909;BME280;57190;47.918;8.112;2023-04-19T01:49:37;91057.53;;;5.40;80.49
69909;BME280;57190;47.918;8.112;2023-04-19T01:52:02;91051.81;;;5.43;79.82
69909;BME280;57190;47.918;8.112;2023-04-19T01:54:28;91047.31;;;5.44;79.53
69909;BME280;57190;47.918;8.112;2023-04-19T01:56:53;91047.22;;;5.39;79.60
69909;BME280;57190;47.918;8.112;2023-04-19T01:59:19;91052.84;;;5.42;79.67
69909;BME280;57190;47.918;8.112;2023-04-19T02:01:44;91047.56;;;5.42;79.67
69909;BME280;57190;47.918;8.112;2023-04-19T02:04:10;91043.28;;;5.41;80.31
69909;BME280;57190;47.918;8.112;2023-04-19T02:06:35;91038.56;;;5.55;79.06
69909;BME280;57190;47.918;8.112;2023-04-19T02:09:01;91043.38;;;5.46;79.22
69909;BME280;57190;47.918;8.112;2023-04-19T02:11:27;91038.56;;;5.43;79.75
69909;BME280;57190;47.918;8.112;2023-04-19T02:13:52;91040.19;;;5.44;79.71
69909;BME280;57190;47.918;8.112;2023-04-19T02:16:18;91034.31;;;5.42;79.79
69909;BME280;57190;47.918;8.112;2023-04-19T02:18:43;91036.50;;;5.45;80.14
69909;BME280;57190;47.918;8.112;2023-04-19T02:21:11;91037.22;;;5.41;79.79
69909;BME280;57190;47.918;8.112;2023-04-19T02:23:36;91038.78;;;5.42;80.32
69909;BME280;57190;47.918;8.112;2023-04-19T02:26:02;91038.34;;;5.33;80.22
69909;BME280;57190;47.918;8.112;2023-04-19T02:28:29;91041.34;;;5.37;79.80
69909;BME280;57190;47.918;8.112;2023-04-19T02:30:54;91031.44;;;5.32;79.35
69909;BME280;57190;47.918;8.112;2023-04-19T02:33:21;91039.63;;;5.30;80.32
69909;BME280;57190;47.918;8.112;2023-04-19T02:35:47;91045.00;;;5.35;80.29
69909;BME280;57190;47.918;8.112;2023-04-19T02:38:13;91037.91;;;5.36;79.26
69909;BME280;57190;47.918;8.112;2023-04-19T02:40:38;91039.38;;;5.32;80.40
69909;BME280;57190;47.918;8.112;2023-04-19T02:43:04;91037.31;;;5.34;80.21
69909;BME280;57190;47.918;8.112;2023-04-19T02:45:29;91034.66;;;5.34;80.22
69909;BME280;57190;47.918;8.112;2023-04-19T02:47:55;91041.56;;;5.35;80.14
69909;BME280;57190;47.918;8.112;2023-04-19T02:50:21;91033.63;;;5.35;79.64
69909;BME280;57190;47.918;8.112;2023-04-19T02:52:46;91038.94;;;5.35;79.39
69909;BME280;57190;47.918;8.112;2023-04-19T02:55:12;91025.38;;;5.31;80.65
69909;BME280;57190;47.918;8.112;2023-04-19T02:57:37;91031.09;;;5.28;80.77
69909;BME280;57190;47.918;8.112;2023-04-19T03:00:03;91025.81;;;5.28;80.08
69909;BME280;57190;47.918;8.112;2023-04-19T03:02:30;91031.19;;;5.33;80.11
69909;BME280;57190;47.918;8.112;2023-04-19T03:04:55;91037.66;;;5.26;80.89
69909;BME280;57190;47.918;8.112;2023-04-19T03:07:21;91023.75;;;5.30;80.72
69909;BME280;57190;47.918;8.112;2023-04-19T03:09:47;91029.38;;;5.34;79.88
69909;BME280;57190;47.918;8.112;2023-04-19T03:12:13;91026.97;;;5.32;79.87
69909;BME280;57190;47.918;8.112;2023-04-19T03:14:38;91024.53;;;5.31;80.03
69909;BME280;57190;47.918;8.112;2023-04-19T03:17:04;91023.41;;;5.27;80.16
69909;BME280;57190;47.918;8.112;2023-04-19T03:19:29;91019.94;;;5.26;80.46
69909;BME280;57190;47.918;8.112;2023-04-19T03:21:55;91013.41;;;5.29;80.07
69909;BME280;57190;47.918;8.112;2023-04-19T03:24:27;91014.53;;;5.33;80.69
69909;BME280;57190;47.918;8.112;2023-04-19T03:26:54;91014.31;;;5.34;80.62
69909;BME280;57190;47.918;8.112;2023-04-19T03:29:19;91017.19;;;5.33;81.06
69909;BME280;57190;47.918;8.112;2023-04-19T03:31:45;91008.34;;;5.27;80.33
69909;BME280;57190;47.918;8.112;2023-04-19T03:34:10;91011.22;;;5.26;81.04
69909;BME280;57190;47.918;8.112;2023-04-19T03:36:36;91013.97;;;5.31;80.26
69909;BME280;57190;47.918;8.112;2023-04-19T03:39:02;91013.16;;;5.30;80.31
69909;BME280;57190;47.918;8.112;2023-04-19T03:41:28;91009.69;;;5.30;80.67
69909;BME280;57190;47.918;8.112;2023-04-19T03:43:53;91011.56;;;5.29;80.52
69909;BME280;57190;47.918;8.112;2023-04-19T03:46:19;91003.16;;;5.20;80.86
69909;BME280;57190;47.918;8.112;2023-04-19T03:48:45;91006.38;;;5.23;81.43
69909;BME280;57190;47.918;8.112;2023-04-19T03:51:11;91000.28;;;5.22;80.42
69909;BME280;57190;47.918;8.112;2023-04-19T03:53:38;91002.94;;;5.22;80.57
69909;BME280;57190;47.918;8.112;2023-04-19T03:56:03;91000.28;;;5.22;80.56
69909;BME280;57190;47.918;8.112;2023-04-19T03:58:29;91004.22;;;5.19;80.69
69909;BME280;57190;47.918;8.112;2023-04-19T04:00:54;91002.69;;;5.24;80.24
69909;BME280;57190;47.918;8.112;2023-04-19T04:03:20;91005.09;;;5.25;79.52
69909;BME280;57190;47.918;8.112;2023-04-19T04:05:45;91000.88;;;5.24;78.93
69909;BME280;57190;47.918;8.112;2023-04-19T04:08:11;91001.56;;;5.19;79.43
69909;BME280;57190;47.918;8.112;2023-04-19T04:10:38;91009.25;;;5.21;79.14
69909;BME280;57190;47.918;8.112;2023-04-19T04:13:03;91008.56;;;5.26;78.93
69909;BME280;57190;47.918;8.112;2023-04-19T04:15:29;91005.78;;;5.20;79.15
69909;BME280;57190;47.918;8.112;2023-04-19T04:17:54;91009.69;;;5.30;79.13
69909;BME280;57190;47.918;8.112;2023-04-19T04:20:20;91005.00;;;5.32;78.95
69909;BME280;57190;47.918;8.112;2023-04-19T04:22:45;91006.28;;;5.29;79.08
69909;BME280;57190;47.918;8.112;2023-04-19T04:25:11;91007.66;;;5.20;79.47
69909;BME280;57190;47.918;8.112;2023-04-19T04:27:42;91013.72;;;5.20;78.92
69909;BME280;57190;47.918;8.112;2023-04-19T04:30:09;91009.25;;;5.21;79.72
69909;BME280;57190;47.918;8.112;2023-04-19T04:32:36;91013.72;;;5.20;79.70
69909;BME280;57190;47.918;8.112;2023-04-19T04:35:06;91007.75;;;5.25;79.71
69909;BME280;57190;47.918;8.112;2023-04-19T04:37:32;91013.16;;;5.30;79.58
69909;BME280;57190;47.918;8.112;2023-04-19T04:40:01;91015.47;;;5.27;79.61
69909;BME280;57190;47.918;8.112;2023-04-19T04:42:30;91022.59;;;5.26;79.62
69909;BME280;57190;47.918;8.112;2023-04-19T04:44:56;91018.56;;;5.24;78.86
69909;BME280;57190;47.918;8.112;2023-04-19T04:47:22;91023.50;;;5.20;79.64
69909;BME280;57190;47.918;8.112;2023-04-19T04:49:48;91023.28;;;5.22;79.13
69909;BME280;57190;47.918;8.112;2023-04-19T04:52:14;91022.47;;;5.21;78.70
69909;BME280;57190;47.918;8.112;2023-04-19T04:54:39;91025.22;;;5.26;79.16
69909;BME280;57190;47.918;8.112;2023-04-19T04:57:05;91029.72;;;5.26;79.18
69909;BME280;57190;47.918;8.112;2023-04-19T04:59:31;91029.38;;;5.22;77.95
69909;BME280;57190;47.918;8.112;2023-04-19T05:01:56;91023.28;;;5.22;78.77
69909;BME280;57190;47.918;8.112;2023-04-19T05:04:22;91025.47;;;5.25;78.12
69909;BME280;57190;47.918;8.112;2023-04-19T05:06:47;91018.56;;;5.24;78.36
69909;BME280;57190;47.918;8.112;2023-04-19T05:09:13;91025.72;;;5.23;78.08
69909;BME280;57190;47.918;8.112;2023-04-19T05:11:38;91020.97;;;5.25;78.99
69909;BME280;57190;47.918;8.112;2023-04-19T05:14:04;91015.69;;;5.25;78.51
69909;BME280;57190;47.918;8.112;2023-04-19T05:16:29;91013.03;;;5.25;79.64
69909;BME280;57190;47.918;8.112;2023-04-19T05:25:42;91026.59;;;5.53;78.74
69909;BME280;57190;47.918;8.112;2023-04-19T05:28:08;91026.28;;;5.37;77.61
69909;BME280;57190;47.918;8.112;2023-04-19T05:30:33;91020.88;;;5.32;78.37
69909;BME280;57190;47.918;8.112;2023-04-19T05:32:59;91027.44;;;5.29;78.11
69909;BME280;57190;47.918;8.112;2023-04-19T05:35:25;91027.53;;;5.23;78.20
69909;BME280;57190;47.918;8.112;2023-04-19T05:37:50;91023.28;;;5.22;79.27
69909;BME280;57190;47.918;8.112;2023-04-19T05:40:16;91028.22;;;5.18;78.82
69909;BME280;57190;47.918;8.112;2023-04-19T05:42:41;91029.38;;;5.22;79.31
69909;BME280;57190;47.918;8.112;2023-04-19T05:45:08;91030.75;;;5.25;78.97
69909;BME280;57190;47.918;8.112;2023-04-19T05:47:34;91026.50;;;5.35;79.38
69909;BME280;57190;47.918;8.112;2023-04-19T05:49:59;91032.72;;;5.29;78.88
69909;BME280;57190;47.918;8.112;2023-04-19T05:52:25;91033.75;;;5.28;79.47
69909;BME280;57190;47.918;8.112;2023-04-19T05:54:50;91027.66;;;5.28;78.56
69909;BME280;57190;47.918;8.112;2023-04-19T05:57:16;91028.81;;;5.32;79.24
69909;BME280;57190;47.918;8.112;2023-04-19T05:59:41;91020.53;;;5.28;79.47
69909;BME280;57190;47.918;8.112;2023-04-19T06:02:07;91026.16;;;5.32;79.32
69909;BME280;57190;47.918;8.112;2023-04-19T06:04:32;91028.34;;;5.35;78.81
69909;BME280;57190;47.918;8.112;2023-04-19T06:06:58;91031.09;;;5.28;78.60
69909;BME280;57190;47.918;8.112;2023-04-19T06:09:23;91035.59;;;5.28;79.03
69909;BME280;57190;47.918;8.112;2023-04-19T06:11:49;91034.31;;;5.30;79.26
69909;BME280;57190;47.918;8.112;2023-04-19T06:14:14;91034.44;;;5.35;79.15
69909;BME280;57190;47.918;8.112;2023-04-19T06:16:40;91042.03;;;5.32;79.99
69909;BME280;57190;47.918;8.112;2023-04-19T06:19:06;91031.56;;;5.37;78.88
69909;BME280;57190;47.918;8.112;2023-04-19T06:21:32;91035.00;;;5.38;78.73
69909;BME280;57190;47.918;8.112;2023-04-19T06:23:58;91034.06;;;5.44;79.51
69909;BME280;57190;47.918;8.112;2023-04-19T06:26:24;91037.31;;;5.34;78.45
69909;BME280;57190;47.918;8.112;2023-04-19T06:28:49;91038.00;;;5.29;78.64
69909;BME280;57190;47.918;8.112;2023-04-19T06:31:15;91036.03;;;5.37;78.60
69909;BME280;57190;47.918;8.112;2023-04-19T06:33:40;91045.59;;;5.38;78.57
69909;BME280;57190;47.918;8.112;2023-04-19T06:36:07;91036.72;;;5.44;76.52
69909;BME280;57190;47.918;8.112;2023-04-19T06:38:33;91039.28;;;5.39;77.03
69909;BME280;57190;47.918;8.112;2023-04-19T06:40:59;91042.38;;;5.35;77.84
69909;BME280;57190;47.918;8.112;2023-04-19T06:43:24;91043.19;;;5.36;77.26
69909;BME280;57190;47.918;8.112;2023-04-19T06:46:00;91044.44;;;5.45;76.85
69909;BME280;57190;47.918;8.112;2023-04-19T06:48:25;91042.94;;;5.38;78.08
69909;BME280;57190;47.918;8.112;2023-04-19T06:50:52;91044.66;;;5.44;76.70
69909;BME280;57190;47.918;8.112;2023-04-19T06:53:18;91044.78;;;5.49;76.95
69909;BME280;57190;47.918;8.112;2023-04-19T06:55:44;91044.31;;;5.40;77.52
69909;BME280;57190;47.918;8.112;2023-04-19T06:58:10;91052.75;;;5.37;77.60
69909;BME280;57190;47.918;8.112;2023-04-19T07:00:36;91044.09;;;5.42;77.03
69909;BME280;57190;47.918;8.112;2023-04-19T07:03:02;91043.06;;;5.43;77.32
69909;BME280;57190;47.918;8.112;2023-04-19T07:05:29;91045.34;;;5.51;77.39
69909;BME280;57190;47.918;8.112;2023-04-19T07:07:55;91038.09;;;5.46;77.85
69909;BME280;57190;47.918;8.112;2023-04-19T07:10:20;91041.09;;;5.50;78.00
69909;BME280;57190;47.918;8.112;2023-04-19T07:12:46;91043.97;;;5.48;77.74
69909;BME280;57190;47.918;8.112;2023-04-19T07:15:11;91041.09;;;5.50;77.38
69909;BME280;57190;47.918;8.112;2023-04-19T07:17:37;91040.75;;;5.46;77.86
69909;BME280;57190;47.918;8.112;2023-04-19T07:20:03;91051.13;;;5.48;77.08
69909;BME280;57190;47.918;8.112;2023-04-19T07:22:31;91034.56;;;5.41;77.66
69909;BME280;57190;47.918;8.112;2023-04-19T07:24:57;91039.38;;;5.44;77.99
69909;BME280;57190;47.918;8.112;2023-04-19T07:27:23;91047.19;;;5.50;77.79
69909;BME280;57190;47.918;8.112;2023-04-19T07:29:51;91038.91;;;5.47;77.92
69909;BME280;57190;47.918;8.112;2023-04-19T07:32:16;91039.50;;;5.49;78.20
69909;BME280;57190;47.918;8.112;2023-04-19T07:34:42;91032.69;;;5.53;77.95
69909;BME280;57190;47.918;8.112;2023-04-19T07:37:09;91037.06;;;5.59;77.77
69909;BME280;57190;47.918;8.112;2023-04-19T07:39:34;91036.00;;;5.60;77.96
69909;BME280;57190;47.918;8.112;2023-04-19T07:42:00;91035.44;;;5.58;77.67
69909;BME280;57190;47.918;8.112;2023-04-19T07:44:26;91037.88;;;5.60;77.53
69909;BME280;57190;47.918;8.112;2023-04-19T07:46:51;91038.66;;;5.60;77.27
69909;BME280;57190;47.918;8.112;2023-04-19T07:49:17;91045.22;;;5.58;77.73
69909;BME280;57190;47.918;8.112;2023-04-19T07:51:42;91040.72;;;5.58;77.47
69909;BME280;57190;47.918;8.112;2023-04-19T07:54:08;91041.66;;;5.64;77.53
69909;BME280;57190;47.918;8.112;2023-04-19T07:56:34;91032.91;;;5.75;77.38
69909;BME280;57190;47.918;8.112;2023-04-19T07:59:00;91028.41;;;5.64;78.43
69909;BME280;57190;47.918;8.112;2023-04-19T08:01:25;91034.28;;;5.66;77.84
69909;BME280;57190;47.918;8.112;2023-04-19T08:03:51;91025.91;;;5.69;78.03
69909;BME280;57190;47.918;8.112;2023-04-19T08:06:16;91029.25;;;5.64;78.40
69909;BME280;57190;47.918;8.112;2023-04-19T08:08:42;91032.09;;;5.75;78.40
69909;BME280;57190;47.918;8.112;2023-04-19T08:11:08;91034.72;;;5.87;78.28
69909;BME280;57190;47.918;8.112;2023-04-19T08:13:33;91030.56;;;5.91;78.44
69909;BME280;57190;47.918;8.112;2023-04-19T08:15:59;91027.13;;;5.90;77.90
69909;BME280;57190;47.918;8.112;2023-04-19T08:18:24;91024.91;;;5.99;78.34
69909;BME280;57190;47.918;8.112;2023-04-19T08:20:50;91022.59;;;6.03;76.95
69909;BME280;57190;47.918;8.112;2023-04-19T08:23:16;91023.09;;;6.00;77.61
69909;BME280;57190;47.918;8.112;2023-04-19T08:25:42;91030.78;;;6.01;77.35
69909;BME280;57190;47.918;8.112;2023-04-19T08:28:07;91028.94;;;6.02;77.30
69909;BME280;57190;47.918;8.112;2023-04-19T08:30:33;91027.78;;;6.09;76.06
69909;BME280;57190;47.918;8.112;2023-04-19T08:32:58;91027.41;;;6.18;76.33
69909;BME280;57190;47.918;8.112;2023-04-19T08:35:25;91030.75;;;6.13;75.87
69909;BME280;57190;47.918;8.112;2023-04-19T08:37:51;91032.69;;;6.18;75.90
69909;BME280;57190;47.918;8.112;2023-04-19T08:40:16;91031.16;;;6.34;74.95
69909;BME280;57190;47.918;8.112;2023-04-19T08:42:42;91027.63;;;6.45;74.02
69909;BME280;57190;47.918;8.112;2023-04-19T08:45:08;91022.25;;;6.57;74.09
69909;BME280;57190;47.918;8.112;2023-04-19T08:47:36;91026.47;;;6.70;72.10
69909;BME280;57190;47.918;8.112;2023-04-19T08:50:04;91019.31;;;6.87;71.88
69909;BME280;57190;47.918;8.112;2023-04-19T08:52:32;91020.38;;;7.03;71.26
69909;BME280;57190;47.918;8.112;2023-04-19T08:55:06;91020.19;;;7.10;71.72
69909;BME280;57190;47.918;8.112;2023-04-19T08:57:33;91015.72;;;7.11;71.57
69909;BME280;57190;47.918;8.112;2023-04-19T09:00:01;91023.94;;;7.09;71.92
69909;BME280;57190;47.918;8.112;2023-04-19T09:02:26;91030.25;;;6.91;71.17
69909;BME280;57190;47.918;8.112;2023-04-19T09:04:52;91024.06;;;6.85;70.87
69909;BME280;57190;47.918;8.112;2023-04-19T09:07:25;91024.13;;;6.73;71.57
69909;BME280;57190;47.918;8.112;2023-04-19T09:10:05;91026.31;;;6.76;72.01
69909;BME280;57190;47.918;8.112;2023-04-19T09:12:32;91017.78;;;6.74;71.76
69909;BME280;57190;47.918;8.112;2023-04-19T09:15:00;91019.06;;;6.72;72.10
69909;BME280;57190;47.918;8.112;2023-04-19T09:17:27;91022.38;;;6.79;72.64
69909;BME280;57190;47.918;8.112;2023-04-19T09:19:52;91017.97;;;6.85;73.35
69909;BME280;57190;47.918;8.112;2023-04-19T09:22:18;91010.81;;;6.85;72.75
69909;BME280;57190;47.918;8.112;2023-04-19T09:24:43;91004.72;;;6.85;73.07
69909;BME280;57190;47.918;8.112;2023-04-19T09:27:09;91003.16;;;6.89;71.73
69909;BME280;57190;47.918;8.112;2023-04-19T09:29:37;91004.94;;;7.00;72.35
69909;BME280;57190;47.918;8.112;2023-04-19T09:32:02;91000.28;;;7.07;71.75
69909;BME280;57190;47.918;8.112;2023-04-19T09:34:28;91005.69;;;7.13;71.50
69909;BME280;57190;47.918;8.112;2023-04-19T09:36:55;91006.41;;;7.08;71.92
69909;BME280;57190;47.918;8.112;2023-04-19T09:39:30;91001.00;;;7.20;72.28
69909;BME280;57190;47.918;8.112;2023-04-19T09:41:56;91001.16;;;7.13;71.82
69909;BME280;57190;47.918;8.112;2023-04-19T09:44:23;90996.41;;;7.15;71.79
69909;BME280;57190;47.918;8.112;2023-04-19T09:46:49;90991.69;;;7.17;71.35
69909;BME280;57190;47.918;8.112;2023-04-19T09:49:23;90995.69;;;7.20;71.82
69909;BME280;57190;47.918;8.112;2023-04-19T09:51:50;90992.31;;;7.24;71.70
69909;BME280;57190;47.918;8.112;2023-04-19T09:54:17;90987.22;;;7.23;72.13
69909;BME280;57190;47.918;8.112;2023-04-19T09:56:44;90986.59;;;7.16;71.72
69909;BME280;57190;47.918;8.112;2023-04-19T09:59:10;90990.06;;;7.16;71.71
69909;BME280;57190;47.918;8.112;2023-04-19T10:01:42;90989.03;;;7.17;71.29
69909;BME280;57190;47.918;8.112;2023-04-19T10:04:15;90989.50;;;7.14;71.20
69909;BME280;57190;47.918;8.112;2023-04-19T10:06:52;90981.72;;;7.07;71.38
69909;BME280;57190;47.918;8.112;2023-04-19T10:09:21;90981.72;;;7.07;71.93
69909;BME280;57190;47.918;8.112;2023-04-19T10:11:51;90980.66;;;7.08;71.67
69909;BME280;57190;47.918;8.112;2023-04-19T10:14:24;90974.06;;;7.11;71.61
69909;BME280;57190;47.918;8.112;2023-04-19T10:16:51;90974.56;;;7.08;71.95
69909;BME280;57190;47.918;8.112;2023-04-19T10:19:19;90979.16;;;7.13;72.33
69909;BME280;57190;47.918;8.112;2023-04-19T10:21:47;90975.69;;;7.12;72.11
69909;BME280;57190;47.918;8.112;2023-04-19T10:24:14;90974.16;;;7.16;72.26
69909;BME280;57190;47.918;8.112;2023-04-19T10:29:55;90966.09;;;7.11;72.42
69909;BME280;57190;47.918;8.112;2023-04-19T10:32:38;90972.78;;;7.14;72.30
69909;BME280;57190;47.918;8.112;2023-04-19T10:35:20;90974.72;;;7.01;72.16
69909;BME280;57190;47.918;8.112;2023-04-19T10:38:11;90977.63;;;7.00;72.90
69909;BME280;57190;47.918;8.112;2023-04-19T10:43:16;90970.41;;;6.95;73.22
69909;BME280;57190;47.918;8.112;2023-04-19T10:45:42;90968.38;;;7.02;72.93
69909;BME280;57190;47.918;8.112;2023-04-19T10:51:10;90962.91;;;7.09;72.25
69909;BME280;57190;47.918;8.112;2023-04-19T10:53:57;90960.63;;;7.18;72.16
69909;BME280;57190;47.918;8.112;2023-04-19T11:01:47;90954.66;;;7.28;71.78
69909;BME280;57190;47.918;8.112;2023-04-19T11:09:24;90943.59;;;7.53;71.54
69909;BME280;57190;47.918;8.112;2023-04-19T11:11:51;90940.50;;;7.61;71.20
69909;BME280;57190;47.918;8.112;2023-04-19T11:14:19;90941.31;;;7.62;70.32
69909;BME280;57190;47.918;8.112;2023-04-19T11:16:45;90931.06;;;7.70;70.52
69909;BME280;57190;47.918;8.112;2023-04-19T11:19:18;90934.91;;;7.80;70.34
69909;BME280;57190;47.918;8.112;2023-04-19T11:21:47;90931.16;;;7.81;70.40
69909;BME280;57190;47.918;8.112;2023-04-19T11:24:13;90937.00;;;7.78;70.33
69909;BME280;57190;47.918;8.112;2023-04-19T11:26:43;90936.13;;;7.72;70.36
69909;BME280;57190;47.918;8.112;2023-04-19T11:29:10;90929.38;;;7.64;70.43
69909;BME280;57190;47.918;8.112;2023-04-19T11:31:36;90928.53;;;7.59;70.55
69909;BME280;57190;47.918;8.112;2023-04-19T11:34:02;90922.72;;;7.62;70.46
69909;BME280;57190;47.918;8.112;2023-04-19T11:36:28;90921.97;;;7.66;70.82
69909;BME280;57190;47.918;8.112;2023-04-19T11:38:56;90927.47;;;7.60;70.25
69909;BME280;57190;47.918;8.112;2023-04-19T11:41:21;90922.97;;;7.60;70.54
69909;BME280;57190;47.918;8.112;2023-04-19T11:43:47;90923.03;;;7.65;70.83
69909;BME280;57190;47.918;8.112;2023-04-19T11:53:20;90917.94;;;7.59;70.88
69909;BME280;57190;47.918;8.112;2023-04-19T11:55:48;90918.88;;;7.52;70.53
69909;BME280;57190;47.918;8.112;2023-04-19T11:58:26;90910.88;;;7.47;70.75
69909;BME280;57190;47.918;8.112;2023-04-19T12:01:06;90911.34;;;7.44;71.01
69909;BME280;57190;47.918;8.112;2023-04-19T12:03:33;90913.78;;;7.46;71.23
69909;BME280;57190;47.918;8.112;2023-04-19T12:06:00;90916.22;;;7.52;71.75
69909;BME280;57190;47.918;8.112;2023-04-19T12:08:37;90911.97;;;7.51;69.26
69909;BME280;57190;47.918;8.112;2023-04-19T12:11:04;90910.50;;;7.38;69.36
69909;BME280;57190;47.918;8.112;2023-04-19T12:13:31;90906.47;;;7.36;69.58
69909;BME280;57190;47.918;8.112;2023-04-19T12:15:57;90910.31;;;7.45;69.15
69909;BME280;57190;47.918;8.112;2023-04-19T12:18:23;90897.56;;;7.42;69.01
69909;BME280;57190;47.918;8.112;2023-04-19T12:20:50;90898.25;;;7.60;68.24
69909;BME280;57190;47.918;8.112;2023-04-19T12:23:16;90891.03;;;7.77;68.10
69909;BME280;57190;47.918;8.112;2023-04-19T12:25:44;90894.69;;;7.98;68.17
69909;BME280;57190;47.918;8.112;2023-04-19T12:28:11;90891.16;;;8.15;67.50
69909;BME280;57190;47.918;8.112;2023-04-19T12:30:38;90893.25;;;8.40;66.93
69909;BME280;57190;47.918;8.112;2023-04-19T12:33:05;90891.88;;;8.65;65.67
69909;BME280;57190;47.918;8.112;2023-04-19T12:35:30;90881.09;;;8.82;65.18
69909;BME280;57190;47.918;8.112;2023-04-19T12:37:57;90887.03;;;8.94;64.36
69909;BME280;57190;47.918;8.112;2023-04-19T12:40:25;90882.78;;;8.99;64.16
69909;BME280;57190;47.918;8.112;2023-04-19T12:42:52;90876.41;;;9.00;64.07
69909;BME280;57190;47.918;8.112;2023-04-19T12:45:18;90875.13;;;9.02;64.74
69909;BME280;57190;47.918;8.112;2023-04-19T12:47:45;90874.03;;;8.98;64.12
69909;BME280;57190;47.918;8.112;2023-04-19T12:50:12;90874.19;;;8.81;64.80
69909;BME280;57190;47.918;8.112;2023-04-19T12:52:38;90873.59;;;8.74;64.84
69909;BME280;57190;47.918;8.112;2023-04-19T12:55:05;90872.47;;;8.64;65.62
69909;BME280;57190;47.918;8.112;2023-04-19T12:57:31;90868.22;;;8.63;65.33
69909;BME280;57190;47.918;8.112;2023-04-19T12:59:56;90873.00;;;8.67;65.23
69909;BME280;57190;47.918;8.112;2023-04-19T13:02:21;90866.91;;;8.71;64.44
69909;BME280;57190;47.918;8.112;2023-04-19T13:04:47;90865.03;;;8.67;64.74
69909;BME280;57190;47.918;8.112;2023-04-19T13:07:13;90853.53;;;8.61;64.81
69909;BME280;57190;47.918;8.112;2023-04-19T13:09:38;90854.66;;;8.65;65.43
69909;BME280;57190;47.918;8.112;2023-04-19T13:12:04;90858.16;;;8.71;64.37
69909;BME280;57190;47.918;8.112;2023-04-19T13:14:30;90853.88;;;8.64;63.66
69909;BME280;57190;47.918;8.112;2023-04-19T13:16:56;90858.38;;;8.64;64.08
69909;BME280;57190;47.918;8.112;2023-04-19T13:19:21;90852.19;;;8.53;64.68
69909;BME280;57190;47.918;8.112;2023-04-19T13:21:47;90853.22;;;8.52;65.10
69909;BME280;57190;47.918;8.112;2023-04-19T13:24:12;90845.66;;;8.39;65.54
69909;BME280;57190;47.918;8.112;2023-04-19T13:26:38;90833.19;;;8.44;65.99
69909;BME280;57190;47.918;8.112;2023-04-19T13:29:04;90840.09;;;8.40;65.91
69909;BME280;57190;47.918;8.112;2023-04-19T13:31:30;90837.97;;;8.42;66.12
69909;BME280;57190;47.918;8.112;2023-04-19T13:33:55;90830.91;;;8.53;65.67
69909;BME280;57190;47.918;8.112;2023-04-19T13:36:21;90833.34;;;8.60;66.06
69909;BME280;57190;47.918;8.112;2023-04-19T13:38:47;90827.50;;;8.63;66.64